Flight Track Log - Related Links

Times and Time Zones

All times are in EST time to prevent confusion due to time zone crossing. See the N865JM flight status page for this flight to view local times or setup timezone preferences in your user account.

Time Position Orientation Groundspeed Altitude Reporting Facility
EST Latitude Longitude Course Direction KTS MPH feet Rate Location/Type
Fri 10:02:36 AM 26.7525 -80.1858 37° Northeast 211 243 2,000  Level Miami Center
Fri 10:03:36 AM 26.8036 -80.1431 37° Northeast 172 198 4,100 3,000 Climbing Miami Center
Fri 10:04:36 AM 26.8267 -80.0528 74° East 201 231 8,000 3,450 Climbing Miami Center
Fri 10:05:36 AM 26.8536 -79.9606 72° East 259 298 11,000 2,900 Climbing Miami Center
Fri 10:06:36 AM 26.8808 -79.8656 72° East 331 381 13,800 1,500 Climbing Miami Center
Fri 10:07:36 AM 26.9125 -79.7478 73° East 380 437 14,000 100 Climbing Miami Center
Fri 10:08:36 AM 26.9772 -79.6281 59° Northeast 408 470 14,000 300 Level Miami Center
Fri 10:09:36 AM 27.0442 -79.5247 54° Northeast 408 470 14,600 1,450 Climbing Miami Center
Fri 10:10:36 AM 27.1106 -79.4214 54° Northeast 408 470 16,900 2,150 Climbing Miami Center
Fri 10:11:36 AM 27.1750 -79.3247 53° Northeast 408 470 18,900 2,200 Climbing Miami Center
Fri 10:12:36 AM 27.2414 -79.2186 55° Northeast 408 470 21,300 2,350 Climbing Miami Center
Fri 10:13:36 AM 27.3164 -79.1008 54° Northeast 420 483 23,600 2,100 Climbing Miami Center
Fri 10:14:36 AM 27.3931 -78.9994 50° Northeast 419 482 25,500 1,850 Climbing Miami Center
Fri 10:15:36 AM 27.4942 -78.9381 28° Northeast 414 476 27,300 1,600 Climbing Miami Center
Fri 10:16:36 AM 27.5925 -78.9233 North 388 447 28,700 1,250 Climbing Miami Center
Fri 10:17:36 AM 27.7181 -78.9069 North 402 463 29,800 1,050 Climbing Miami Center
Fri 10:18:36 AM 27.8394 -78.8881 North 426 490 30,800 1,000 Climbing Miami Center
Fri 10:19:36 AM 27.9631 -78.8714 North 433 498 31,800 1,000 Climbing Miami Center
Fri 10:20:36 AM 28.0883 -78.8572 North 439 505 32,800 1,000 Climbing Miami Center
Fri 10:21:36 AM 28.2161 -78.8381 North 446 513 33,800 1,000 Climbing Miami Center
Fri 10:22:36 AM 28.3414 -78.8214 North 451 519 34,800 850 Climbing Miami Center
Fri 10:23:36 AM 28.4628 -78.8047 North 451 519 35,500 600 Climbing Miami Center
Fri 10:24:36 AM 28.5944 -78.7856 North 451 519 36,000 500 Climbing Miami Center
Fri 10:25:36 AM 28.7178 -78.7689 North 451 519 36,500 500 Climbing Miami Center
Fri 10:26:36 AM 28.8475 -78.7497 North 451 519 37,000 250 Climbing Miami Center
Fri 10:27:36 AM 28.9750 -78.7306 North 451 519 37,000  Level Miami Center
Fri 10:28:36 AM 29.1025 -78.7139 North 456 525 37,000  Level Miami Center
Fri 10:29:36 AM 29.2300 -78.6944 North 461 531 37,000  Level Miami Center
Fri 10:30:36 AM 29.3700 -78.6850 North 468 539 37,000  Level Miami Center
Fri 10:31:36 AM 29.4911 -78.6608 10° North 460 529 37,000  Level Miami Center
Fri 10:32:36 AM 29.6106 -78.6342 11° North 458 527 37,000  Level Miami Center
Fri 10:33:41 AM 29.7439 -78.6158 North 465 535 37,000  Level Jacksonville Center
Fri 10:34:41 AM 29.8706 -78.5958 North 475 547 37,000  Level Jacksonville Center
Fri 10:35:41 AM 30.0058 -78.5828 North 470 541 37,000  Level Jacksonville Center
Fri 10:36:41 AM 30.1325 -78.5628 North 470 541 37,000  Level Jacksonville Center
Fri 10:37:41 AM 30.2675 -78.5444 North 455 524 37,000  Level Jacksonville Center
Fri 10:38:41 AM 30.4044 -78.5239 North 462 532 37,000  Level Jacksonville Center
Fri 10:39:41 AM 30.5292 -78.5061 North 468 539 37,000  Level Jacksonville Center
Fri 10:40:41 AM 30.6619 -78.4831 North 468 539 37,000  Level Jacksonville Center
Fri 10:41:41 AM 30.7928 -78.4625 North 468 539 37,000  Level Jacksonville Center
Fri 10:42:41 AM 30.9256 -78.4417 North 463 533 37,000  Level Jacksonville Center
Fri 10:43:41 AM 31.0583 -78.4161 North 478 550 37,000  Level Jacksonville Center
Fri 10:44:41 AM 31.1892 -78.3953 North 473 544 37,000  Level Jacksonville Center
Fri 10:45:41 AM 31.3178 -78.3769 North 470 541 37,000  Level Jacksonville Center
Fri 10:46:41 AM 31.4486 -78.3536 North 470 541 37,000  Level Jacksonville Center
Fri 10:47:41 AM 31.5814 -78.3325 North 470 541 37,000  Level Jacksonville Center
Fri 10:48:41 AM 31.7100 -78.3114 North 477 549 37,000  Level Jacksonville Center
Fri 10:49:41 AM 31.8428 -78.2903 North 477 549 37,000  Level Jacksonville Center
Fri 10:50:41 AM 31.9756 -78.2689 North 477 549 37,000  Level Jacksonville Center
Fri 10:51:41 AM 32.1064 -78.2475 North 477 549 37,000  Level Jacksonville Center
Fri 10:52:41 AM 32.2286 -78.2242 North 482 555 37,000  Level Jacksonville Center
Fri 10:53:41 AM 32.3636 -78.2025 North 482 555 37,000  Level Jacksonville Center
Fri 10:54:41 AM 32.4964 -78.1808 North 482 555 37,000 -50 Level Jacksonville Center
Fri 10:55:41 AM 32.6311 -78.1592 North 482 555 36,900  Descending Jacksonville Center
Fri 10:56:41 AM 32.7661 -78.1397 North 482 555 37,000 50 Climbing Jacksonville Center
Fri 10:57:41 AM 32.9008 -78.1153 North 482 555 37,000  Level Jacksonville Center
Fri 10:58:41 AM 33.0378 -78.0931 North 482 555 37,000  Level Jacksonville Center
Fri 10:59:41 AM 33.1725 -78.0711 North 482 555 37,000  Level Jacksonville Center
Fri 11:00:41 AM 33.3072 -78.0489 North 482 555 37,000  Level Jacksonville Center
Fri 11:01:11 AM 33.3875 -78.0364 North 485 558 37,000  Level Washington Center
Fri 11:02:12 AM 33.5236 -78.0153 North 485 558 37,000  Level Washington Center
Fri 11:03:12 AM 33.6553 -77.9942 North 485 558 37,000  Level Washington Center
Fri 11:04:13 AM 33.7872 -77.9706 North 485 558 37,000  Level Washington Center
Fri 11:05:11 AM 33.9067 -77.9464 10° North 479 551 37,000  Level Washington Center
Fri 11:06:12 AM 34.0342 -77.9300 North 479 551 37,000  Level Washington Center
Fri 11:07:12 AM 34.1619 -77.9086 North 468 539 37,000  Level Washington Center
Fri 11:08:13 AM 34.2897 -77.8869 North 463 533 37,000  Level Washington Center
Fri 11:09:13 AM 34.4128 -77.8778 North 463 533 37,000  Level Washington Center
Fri 11:10:10 AM 34.5339 -77.8736 North 445 512 37,000  Level Washington Center
Fri 11:11:12 AM 34.6569 -77.8744 360° North 439 505 37,000  Level Washington Center
Fri 11:12:13 AM 34.7761 -77.8703 North 432 497 37,000  Level Washington Center
Fri 11:13:13 AM 34.8950 -77.8661 North 427 491 37,000  Level Washington Center
Fri 11:14:11 AM 35.0161 -77.8644 North 427 491 37,000  Level Washington Center
Fri 11:15:12 AM 35.1372 -77.8625 North 427 491 37,000  Level Washington Center
Fri 11:16:13 AM 35.2583 -77.8611 North 427 491 37,000  Level Washington Center
Fri 11:17:13 AM 35.3792 -77.8592 North 427 491 37,000  Level Washington Center
Fri 11:18:11 AM 35.5003 -77.8603 360° North 427 491 37,000  Level Washington Center
Fri 11:19:11 AM 35.6214 -77.8586 North 427 491 37,000 -198 Level Washington Center
Fri 11:20:12 AM 35.7425 -77.8569 North 427 491 36,600 -885 Descending Washington Center
Fri 11:21:13 AM 35.8633 -77.8553 North 427 491 35,200 -1,550 Descending Washington Center
Fri 11:22:12 AM 35.9761 -77.8533 North 420 483 33,500 -1,700 Descending Washington Center
Fri 11:23:13 AM 36.0867 -77.8514 North 408 470 31,800 -1,563 Descending Washington Center
Fri 11:24:11 AM 36.1931 -77.8517 360° North 395 455 30,400 -1,412 Descending Washington Center
Fri 11:25:12 AM 36.3081 -77.8500 North 389 448 29,000 -1,388 Descending Washington Center
Fri 11:26:12 AM 36.4206 -77.8481 North 394 453 27,600 -992 Descending Washington Center
Fri 11:27:13 AM 36.5333 -77.8461 North 401 461 27,000 -298 Descending Washington Center
Fri 11:28:13 AM 36.6503 -77.8442 North 408 470 27,000 -359 Level Washington Center
Fri 11:29:10 AM 36.7653 -77.8319 North 408 470 26,300 -864 Descending Washington Center
Fri 11:30:11 AM 36.8783 -77.8042 11° North 408 470 25,300 -992 Descending Washington Center
Fri 11:31:11 AM 36.9875 -77.7761 12° North 408 470 24,300 -992 Descending Washington Center
Fri 11:32:12 AM 37.0942 -77.7478 12° North 396 456 23,300 -984 Descending Washington Center
Fri 11:33:13 AM 37.1950 -77.7194 13° North 380 437 22,300 -645 Descending Washington Center
Fri 11:34:13 AM 37.2956 -77.6908 13° North 374 430 22,000 -254 Descending Washington Center
Fri 11:35:11 AM 37.3983 -77.6622 12° North 374 430 21,800 -353 Descending Washington Center
Fri 11:36:12 AM 37.5031 -77.6336 12° North 374 430 21,300 -492 Descending Washington Center
Fri 11:37:13 AM 37.6017 -77.6075 12° North 369 425 20,800 -595 Descending Washington Center
Fri 11:38:13 AM 37.7000 -77.5814 12° North 364 419 20,100 -1,373 Descending Washington Center
Fri 11:39:11 AM 37.7964 -77.5522 13° North 358 412 18,100 3,508 Descending Washington Center
Fri 11:40:11 AM 37.8908 -77.5258 12° North 353 406 27,000 -1,686 Climbing Washington Center
Fri 11:41:12 AM 37.9808 -77.5017 12° North 347 399 14,700 -7,082 Descending Washington Center
Fri 11:42:13 AM 38.0731 -77.4778 12° North 336 387 12,600 -2,033 Descending Washington Center
Fri 11:43:13 AM 38.1589 -77.4536 12° North 329 379 10,600 -1,525 Descending Washington Center
Fri 11:44:11 AM 38.2281 -77.4181 22° Northeast 293 337 9,600 -1,068 Descending Washington Center
Fri 11:45:11 AM 38.2992 -77.4119 North 260 299 8,500 -1,041 Descending Washington Center
Fri 11:46:12 AM 38.3700 -77.4164 357° North 255 293 7,500 -992 Descending Washington Center
Fri 11:47:12 AM 38.4367 -77.4233 355° North 250 288 6,500 -992 Descending Washington Center
Fri 11:48:13 AM 38.4992 -77.4275 357° North 239 275 5,500 -1,008 Descending Washington Center
Fri 11:49:11 AM 38.5617 -77.4317 357° North 229 264 4,500 -706 Descending Washington Center
Fri 11:50:12 AM 38.6200 -77.4358 357° North 218 251 4,100 -330 Descending Washington Center
Fri 11:50:42 AM 38.6667 -77.4333 North 208 239 4,000 -133 Descending Potomac TRACON
Fri 11:51:42 AM 38.7167 -77.4333 360° North 206 237 3,900 -50 Descending Potomac TRACON
Fri 11:52:42 AM 38.7667 -77.4333 360° North 175 201 3,900 -650 Level Potomac TRACON
Fri 11:53:42 AM 38.8167 -77.4333 360° North 175 201 2,600 -1,100 Descending Potomac TRACON
Fri 11:54:42 AM 38.8667 -77.4333 360° North 162 186 1,700 -850 Descending Potomac TRACON
Fri 11:55:42 AM 38.9000 -77.4333 360° North 125 144 900 -800 Descending Potomac TRACON
Fri 11:57:00 AM 38.9474 -77.4599 North  Level Estimated
Fri 12:04:00 PM 38.9474 -77.4599 191° South  Level Estimated
Fri 12:05:00 PM 38.9474 -77.4599 191° South  Level Estimated

Login

Don't have an account? Register now (free) for customized features, flight alerts, and more!